Airfield :
LOGIN :

Register | Disclaimer

   EN    FR    IT 

 










Legend :    VFR   Marginal VFR   IFR   Intensive IFR   Very Intensive IFR
Visi :
Ceiling :
>= 8 km
>= 3000ft
5 to 8 km
1000 to 3000 ft
1500m to 5 km
500 to 1000 ft
800 to 1500m
200 to 500 ft
< 800m
< 200 ft
Symbols :   Thunderstorms  Fog  Heavy snow  Heavy precipitations  Wind > 20 kt
SIGMETs :     Misc.  Thunderstorms  Icing  Turbulence  Mountain Waves  Volcanic Ashes







- Airport Elevation : 160 ft
- IATA code : FMO


EDDG - Münster Osnabrück Int.

CURRENT METAR :
  • 240950Z 06003KT 010V140 9999 FEW018 16/11 Q1023 NOSIG

EXPIRED METARs :
  • 240920Z 06004KT 010V150 9000 FEW010 SCT120 15/12 Q1023 NOSIG
  • 240850Z 05003KT 320V110 7000 NSC 15/13 Q1023 NOSIG
  • 240820Z 04003KT 350V080 5000 BR NSC 14/13 Q1023 TEMPO 4500
  • 240750Z VRB02KT 4000 BR NSC 13/12 Q1023 BECMG 5000
  • 240720Z 01003KT 350V050 3500 BR NSC 12/11 Q1023 NOSIG

TAF TAF EDDG
Valid from the 24 at 06:00 until the 25 at 06:00 UTC


240500Z 2406/2506 VRB03KT 4500 BR NSC
TEMPO 2406/2408 2500 BR BKN003
PROB30
TEMPO 2406/2407 0500 FG OVC001
BECMG 2408/2411 9999
BECMG 2421/2424 2500 BR BKN008
PROB30
TEMPO 2502/2506 1200 BR BKN003
No reported NOTAMs for that airfield.



MET'MAP, your aeronautical weather chart ! - Copyright ORBIFLY December 2007 - Disclaimer

ORBIFLY MET'MAP TEAM :

Programming & Development : Alexandra Zaïnal
Concept & Development : Baudouin d'Aumeries
Co-Development & Prog : Marc-Olivier Méhu
Technical & hardware support : Manuel Goepfert

Contact : metmap@orbifly.com




SOURCES & CREDITS :

   NOAA